Аэропорт: Магнитогорск. Магнитогорск

ICAO: USCM

METAR:
2019/03/26 13:00
USCM 261300Z 25008MPS 9999 FEW040 02/M06 Q1016 R18/090060 NOSIG RMK QFE724
METAR:
Информация по данной станции не доступна